createdAt,value
2023-05-20T00:02:00.256Z,55.32
2023-05-20T00:04:28.178Z,55.59
2023-05-20T00:06:56.587Z,55.54
2023-05-20T00:09:24.516Z,55.71
2023-05-20T00:11:53.852Z,55.24
2023-05-20T00:14:22.030Z,55.39
2023-05-20T00:16:50.168Z,55.05
2023-05-20T00:19:18.126Z,56.25
2023-05-20T00:21:46.351Z,55.89
2023-05-20T00:24:14.549Z,55.77
2023-05-20T00:26:42.401Z,55.37
2023-05-20T00:29:11.743Z,55.40
2023-05-20T00:31:39.860Z,55.59
2023-05-20T00:34:07.844Z,55.55
2023-05-20T00:36:36.612Z,55.78
2023-05-20T00:39:04.817Z,55.79
2023-05-20T00:41:33.866Z,56.38
2023-05-20T00:44:01.747Z,56.34
2023-05-20T00:46:31.220Z,56.69
2023-05-20T00:48:59.459Z,56.70
2023-05-20T00:51:27.356Z,57.05
2023-05-20T00:53:55.552Z,57.06
2023-05-20T00:56:24.175Z,57.16
2023-05-20T00:58:52.239Z,57.40
2023-05-20T01:01:20.126Z,57.08
2023-05-20T01:03:49.829Z,57.40
2023-05-20T01:06:17.888Z,57.57
2023-05-20T01:08:46.078Z,58.14
2023-05-20T01:11:19.178Z,58.25
2023-05-20T01:13:50.428Z,57.94
2023-05-20T01:16:20.278Z,58.02
2023-05-20T01:18:49.854Z,58.38
2023-05-20T01:21:18.801Z,58.48
2023-05-20T01:23:48.550Z,59.16
2023-05-20T01:26:17.412Z,59.01
2023-05-20T01:28:45.878Z,59.31
2023-05-20T01:31:18.560Z,59.50
2023-05-20T01:33:47.748Z,59.84
2023-05-20T01:36:15.769Z,59.94
2023-05-20T01:38:43.990Z,60.26
2023-05-20T01:41:14.358Z,60.15
2023-05-20T01:43:43.941Z,60.12
2023-05-20T01:46:11.903Z,60.39
2023-05-20T01:48:39.972Z,60.36
2023-05-20T01:51:07.879Z,60.70
2023-05-20T01:53:35.772Z,60.92
2023-05-20T01:56:03.636Z,61.29
2023-05-20T01:58:32.877Z,61.52
2023-05-20T02:01:01.752Z,61.94
2023-05-20T02:03:29.742Z,61.66
2023-05-20T02:05:57.660Z,61.97
2023-05-20T02:08:25.629Z,62.32
2023-05-20T02:10:53.494Z,62.29
2023-05-20T02:13:21.511Z,62.48
2023-05-20T02:15:50.669Z,62.38
2023-05-20T02:18:18.676Z,62.65
2023-05-20T02:20:46.718Z,63.09
2023-05-20T02:23:14.621Z,62.84
2023-05-20T02:25:42.487Z,63.94
2023-05-20T02:28:10.750Z,64.06
2023-05-20T02:30:38.861Z,64.01
2023-05-20T02:33:09.773Z,63.80
2023-05-20T02:35:37.979Z,64.26
2023-05-20T02:38:05.848Z,64.49
2023-05-20T02:40:33.652Z,64.28
2023-05-20T02:43:01.873Z,64.01
2023-05-20T02:45:30.041Z,64.46
2023-05-20T02:47:58.022Z,64.66
2023-05-20T02:50:27.243Z,64.83
2023-05-20T02:52:55.088Z,64.95
2023-05-20T02:55:23.790Z,65.08
2023-05-20T02:57:51.959Z,65.14
2023-05-20T03:00:19.847Z,65.09
2023-05-20T03:02:47.760Z,65.39
2023-05-20T03:05:15.772Z,65.69
2023-05-20T03:07:46.485Z,66.01
2023-05-20T03:10:14.389Z,66.11
2023-05-20T03:12:42.256Z,66.57
2023-05-20T03:15:10.902Z,66.35
2023-05-20T03:17:38.807Z,66.82
2023-05-20T03:20:08.276Z,66.89
2023-05-20T03:22:36.245Z,66.57
2023-05-20T03:25:06.399Z,67.44
2023-05-20T03:27:34.511Z,66.70
2023-05-20T03:30:02.451Z,66.83
2023-05-20T03:32:30.307Z,67.13
2023-05-20T03:34:58.404Z,66.89
2023-05-20T03:37:26.225Z,67.22
2023-05-20T03:39:54.103Z,67.72
2023-05-20T03:42:23.298Z,67.46
2023-05-20T03:44:51.283Z,67.54
2023-05-20T03:47:19.083Z,68.00
2023-05-20T03:49:46.920Z,67.92
2023-05-20T03:52:14.757Z,68.24
2023-05-20T03:54:42.654Z,68.11
2023-05-20T03:57:10.598Z,68.26
2023-05-20T03:59:39.967Z,68.35
2023-05-20T04:02:08.214Z,68.37
2023-05-20T04:04:36.267Z,68.43
2023-05-20T04:07:05.124Z,68.83
2023-05-20T04:09:33.161Z,69.15
2023-05-20T04:12:01.050Z,69.12
2023-05-20T04:14:28.936Z,68.85
2023-05-20T04:16:58.279Z,68.67
2023-05-20T04:19:28.527Z,68.68
2023-05-20T04:21:57.328Z,68.44
2023-05-20T04:24:26.928Z,68.55
2023-05-20T04:26:54.755Z,68.31
2023-05-20T04:29:23.148Z,68.98
2023-05-20T04:31:51.128Z,68.80
2023-05-20T04:34:27.038Z,69.28
2023-05-20T04:36:54.981Z,68.81
2023-05-20T04:39:22.821Z,69.13
2023-05-20T04:41:51.102Z,68.94
2023-05-20T04:44:18.945Z,68.75
2023-05-20T04:46:46.848Z,68.88
2023-05-20T04:49:15.311Z,68.57
2023-05-20T04:51:44.518Z,68.82
2023-05-20T04:54:12.324Z,68.91
2023-05-20T04:56:40.435Z,68.83
2023-05-20T04:59:09.728Z,68.93
2023-05-20T05:01:37.673Z,68.65
2023-05-20T05:04:06.246Z,68.81
2023-05-20T05:06:34.270Z,68.42
2023-05-20T05:09:03.759Z,68.92
2023-05-20T05:11:31.784Z,68.69
2023-05-20T05:13:59.549Z,69.08
2023-05-20T05:16:27.444Z,68.89
2023-05-20T05:18:55.301Z,68.79
2023-05-20T05:21:23.273Z,68.68
2023-05-20T05:23:51.133Z,68.97
2023-05-20T05:26:20.337Z,68.66
2023-05-20T05:28:48.106Z,68.35
2023-05-20T05:31:15.944Z,68.28
2023-05-20T05:33:43.749Z,68.09
2023-05-20T05:36:11.585Z,67.81
2023-05-20T05:38:39.392Z,67.47
2023-05-20T05:41:07.418Z,67.67
2023-05-20T05:43:36.596Z,66.56
2023-05-20T05:46:05.167Z,67.00
2023-05-20T05:48:33.015Z,66.21
2023-05-20T05:51:00.824Z,66.03
2023-05-20T05:53:28.668Z,66.48
2023-05-20T05:55:56.476Z,66.04
2023-05-20T05:58:24.336Z,66.03
2023-05-20T06:00:54.928Z,65.79
2023-05-20T06:03:23.151Z,65.70
2023-05-20T06:05:51.104Z,65.85
2023-05-20T06:08:18.910Z,64.95
2023-05-20T06:10:49.079Z,64.35
2023-05-20T06:13:16.934Z,63.85
2023-05-20T06:15:46.102Z,63.65
2023-05-20T06:18:15.258Z,63.90
2023-05-20T06:20:43.085Z,63.63
2023-05-20T06:23:10.907Z,63.51
2023-05-20T06:25:38.694Z,63.29
2023-05-20T06:28:06.511Z,62.93
2023-05-20T06:30:34.322Z,63.15
2023-05-20T06:33:02.180Z,62.39
2023-05-20T06:35:31.413Z,62.11
2023-05-20T06:38:01.198Z,62.36
2023-05-20T06:40:29.161Z,61.48
2023-05-20T06:42:56.915Z,61.46
2023-05-20T06:45:24.736Z,61.12
2023-05-20T06:47:54.274Z,60.27
2023-05-20T06:50:22.156Z,59.90
2023-05-20T06:52:51.349Z,60.21
2023-05-20T06:55:19.369Z,60.04
2023-05-20T06:57:47.322Z,59.49
2023-05-20T07:00:15.728Z,59.35
2023-05-20T07:02:43.812Z,60.03
2023-05-20T07:05:11.977Z,59.92
2023-05-20T07:07:40.205Z,60.21
2023-05-20T07:10:10.456Z,60.31
2023-05-20T07:12:38.253Z,60.63
2023-05-20T07:15:06.964Z,60.58
2023-05-20T07:17:34.816Z,59.76
2023-05-20T07:20:02.652Z,58.72
2023-05-20T07:22:30.567Z,57.96
2023-05-20T07:24:59.535Z,58.17
2023-05-20T07:27:28.716Z,57.64
2023-05-20T07:29:56.502Z,57.18
2023-05-20T07:32:24.354Z,56.36
2023-05-20T07:34:52.312Z,56.25
2023-05-20T07:37:20.158Z,56.13
2023-05-20T07:39:48.225Z,55.45
2023-05-20T07:42:16.112Z,55.83
2023-05-20T07:44:45.276Z,54.95
2023-05-20T07:47:13.205Z,54.43
2023-05-20T07:49:41.009Z,55.11
2023-05-20T07:52:09.035Z,54.27
2023-05-20T07:54:36.866Z,55.04
2023-05-20T07:57:04.845Z,55.03
2023-05-20T07:59:32.620Z,55.18
2023-05-20T08:02:01.877Z,55.54
2023-05-20T08:04:29.816Z,55.67
2023-05-20T08:06:57.736Z,54.89
2023-05-20T08:09:25.580Z,54.35
2023-05-20T08:11:53.394Z,54.54
2023-05-20T08:14:21.274Z,54.09
2023-05-20T08:16:49.116Z,53.43
2023-05-20T08:19:18.378Z,52.24
2023-05-20T08:21:46.531Z,51.69
2023-05-20T08:24:14.449Z,52.27
2023-05-20T08:26:42.214Z,53.79
2023-05-20T08:29:10.026Z,54.18
2023-05-20T08:31:37.890Z,53.83
2023-05-20T08:34:05.746Z,53.66
2023-05-20T08:36:34.863Z,53.46
2023-05-20T08:39:02.969Z,54.19
2023-05-20T08:41:31.043Z,52.65
2023-05-20T08:44:00.656Z,54.09
2023-05-20T08:46:28.933Z,53.25
2023-05-20T08:48:57.278Z,53.13
2023-05-20T08:51:28.450Z,52.04
2023-05-20T08:53:57.633Z,52.47
2023-05-20T08:56:29.329Z,52.69
2023-05-20T08:58:58.716Z,51.33
2023-05-20T09:01:26.983Z,51.97
2023-05-20T09:03:54.849Z,51.60
2023-05-20T09:06:22.655Z,51.77
2023-05-20T09:08:51.412Z,51.24
2023-05-20T09:11:21.834Z,51.37
2023-05-20T09:13:51.225Z,52.02
2023-05-20T09:16:19.154Z,51.48
2023-05-20T09:18:47.710Z,51.88
2023-05-20T09:21:15.559Z,51.22
2023-05-20T09:23:48.688Z,50.85
2023-05-20T09:26:16.620Z,51.83
2023-05-20T09:28:45.774Z,50.58
2023-05-20T09:31:15.210Z,50.84
2023-05-20T09:33:43.273Z,50.38
2023-05-20T09:36:11.595Z,50.07
2023-05-20T09:38:40.648Z,51.18
2023-05-20T09:41:09.793Z,51.21
2023-05-20T09:43:37.866Z,50.85
2023-05-20T09:46:08.320Z,49.97
2023-05-20T09:48:37.376Z,49.60
2023-05-20T09:51:06.418Z,48.05
2023-05-20T09:53:34.185Z,48.30
2023-05-20T09:56:02.083Z,46.47
2023-05-20T09:58:30.756Z,46.86
2023-05-20T10:00:58.561Z,45.86
2023-05-20T10:03:28.350Z,45.71
2023-05-20T10:06:11.186Z,45.64
2023-05-20T10:08:51.157Z,45.41
2023-05-20T10:11:25.289Z,45.30
2023-05-20T10:14:08.109Z,44.45
2023-05-20T10:16:45.736Z,45.43
2023-05-20T10:19:26.112Z,43.80
2023-05-20T10:22:02.110Z,43.33
2023-05-20T10:24:33.707Z,42.55
2023-05-20T10:27:03.594Z,42.06
2023-05-20T10:29:31.651Z,42.46
2023-05-20T10:31:59.464Z,43.72
2023-05-20T10:34:28.827Z,44.37
2023-05-20T10:37:00.253Z,44.01
2023-05-20T10:39:28.733Z,43.51
2023-05-20T10:42:08.232Z,44.27
2023-05-20T10:44:43.555Z,44.81
2023-05-20T10:49:46.125Z,46.48
2023-05-20T10:52:14.534Z,45.65
2023-05-20T10:54:45.813Z,45.19
2023-05-20T10:57:13.720Z,45.21
2023-05-20T10:59:42.432Z,45.75
2023-05-20T11:02:12.600Z,45.56
2023-05-20T11:04:40.604Z,44.97
2023-05-20T11:07:10.004Z,45.58
2023-05-20T11:09:38.339Z,45.61
2023-05-20T11:12:06.860Z,45.49
2023-05-20T11:14:34.726Z,44.75
2023-05-20T11:17:08.996Z,44.30
2023-05-20T11:19:38.458Z,44.18
2023-05-20T11:22:10.011Z,42.29
2023-05-20T11:24:38.775Z,41.97
2023-05-20T11:27:07.714Z,41.83
2023-05-20T11:29:35.574Z,41.97
2023-05-20T11:32:03.428Z,42.25
2023-05-20T11:34:35.599Z,41.98
2023-05-20T11:37:03.474Z,42.16
2023-05-20T11:39:32.849Z,41.94
2023-05-20T11:42:00.809Z,42.80
2023-05-20T11:44:28.639Z,41.94
2023-05-20T11:47:01.320Z,41.28
2023-05-20T11:49:29.332Z,40.74
2023-05-20T11:51:57.978Z,41.50
2023-05-20T11:54:26.110Z,41.25
2023-05-20T11:56:55.892Z,41.87
2023-05-20T11:59:25.519Z,40.77
2023-05-20T12:01:56.614Z,41.21
2023-05-20T12:04:24.586Z,40.88
2023-05-20T12:06:53.232Z,41.17
2023-05-20T12:09:21.115Z,42.68
2023-05-20T12:11:48.958Z,42.54
2023-05-20T12:14:18.193Z,42.23
2023-05-20T12:16:46.054Z,42.14
2023-05-20T12:19:13.913Z,41.87
2023-05-20T12:21:41.748Z,41.71
2023-05-20T12:24:10.426Z,40.14
2023-05-20T12:26:38.247Z,40.32
2023-05-20T12:29:06.993Z,40.73
2023-05-20T12:31:36.312Z,41.10
2023-05-20T12:34:04.247Z,41.29
2023-05-20T12:36:32.417Z,42.10
2023-05-20T12:39:00.513Z,42.10
2023-05-20T12:41:28.325Z,42.15
2023-05-20T12:43:56.170Z,41.61
2023-05-20T12:46:24.167Z,42.25
2023-05-20T12:48:53.732Z,42.09
2023-05-20T12:51:21.635Z,42.21
2023-05-20T12:53:49.682Z,42.64
2023-05-20T12:56:17.795Z,42.95
2023-05-20T12:58:45.609Z,43.22
2023-05-20T13:01:13.524Z,42.03
2023-05-20T13:03:41.615Z,42.80
2023-05-20T13:06:11.028Z,42.64
2023-05-20T13:08:38.796Z,42.44
2023-05-20T13:11:06.804Z,41.91
2023-05-20T13:13:34.611Z,42.63
2023-05-20T13:16:02.762Z,42.93
2023-05-20T13:18:30.592Z,43.57
2023-05-20T13:20:58.365Z,43.51
2023-05-20T13:23:27.597Z,42.31
2023-05-20T13:25:57.931Z,41.93
2023-05-20T13:28:25.817Z,42.38
2023-05-20T13:30:53.707Z,43.16
2023-05-20T13:33:23.157Z,42.04
2023-05-20T13:35:51.680Z,41.09
2023-05-20T13:38:19.554Z,41.25
2023-05-20T13:40:49.182Z,42.77
2023-05-20T13:43:17.193Z,42.61
2023-05-20T13:45:45.267Z,41.20
2023-05-20T13:48:13.142Z,40.61
2023-05-20T13:50:41.159Z,39.42
2023-05-20T13:53:12.518Z,38.60
2023-05-20T13:55:40.503Z,39.58
2023-05-20T13:58:09.982Z,40.20
2023-05-20T14:00:38.406Z,39.92
2023-05-20T14:03:09.025Z,40.45
2023-05-20T14:05:37.182Z,40.70
2023-05-20T14:08:05.602Z,40.71
2023-05-20T14:10:33.606Z,40.64
2023-05-20T14:13:02.193Z,40.48
2023-05-20T14:15:31.514Z,40.12
2023-05-20T14:17:59.581Z,40.37
2023-05-20T14:20:27.493Z,39.80
2023-05-20T14:22:55.408Z,39.14
2023-05-20T14:25:23.275Z,38.65
2023-05-20T14:27:51.160Z,38.82
2023-05-20T14:30:19.299Z,41.36
2023-05-20T14:32:48.554Z,40.84
2023-05-20T14:35:16.881Z,41.22
2023-05-20T14:37:44.741Z,41.03
2023-05-20T14:40:13.354Z,41.56
2023-05-20T14:42:41.318Z,41.45
2023-05-20T14:45:10.642Z,40.59
2023-05-20T14:47:40.125Z,40.03
2023-05-20T14:50:10.146Z,39.56
2023-05-20T14:52:38.014Z,39.91
2023-05-20T14:55:06.549Z,39.24
2023-05-20T14:57:34.385Z,39.96
2023-05-20T15:00:02.351Z,39.33
2023-05-20T15:02:30.201Z,40.00
2023-05-20T15:04:58.245Z,40.07
2023-05-20T15:07:27.720Z,40.13
2023-05-20T15:09:55.583Z,40.29
2023-05-20T15:12:23.439Z,40.33
2023-05-20T15:14:51.275Z,39.97
2023-05-20T15:17:19.120Z,39.77
2023-05-20T15:19:46.894Z,39.33
2023-05-20T15:22:14.743Z,40.19
2023-05-20T15:24:43.899Z,39.71
2023-05-20T15:27:11.745Z,39.24
2023-05-20T15:29:40.805Z,38.92
2023-05-20T15:32:08.910Z,38.73
2023-05-20T15:34:36.693Z,39.06
2023-05-20T15:37:04.642Z,38.83
2023-05-20T15:39:32.422Z,39.01
2023-05-20T15:42:02.969Z,39.15
2023-05-20T15:44:31.056Z,39.04
2023-05-20T15:46:58.950Z,38.88
2023-05-20T15:49:26.852Z,38.83
2023-05-20T15:52:02.822Z,39.58
2023-05-20T15:54:31.900Z,39.41
2023-05-20T15:57:01.136Z,39.62
2023-05-20T15:59:28.970Z,39.70
2023-05-20T16:01:56.800Z,39.47
2023-05-20T16:04:24.843Z,39.07
2023-05-20T16:06:52.728Z,38.90
2023-05-20T16:09:20.566Z,39.21
2023-05-20T16:11:48.465Z,40.65
2023-05-20T16:14:17.633Z,41.42
2023-05-20T16:16:45.636Z,42.40
2023-05-20T16:19:13.562Z,42.51
2023-05-20T16:21:41.577Z,42.26
2023-05-20T16:24:09.376Z,42.88
2023-05-20T16:26:37.183Z,43.49
2023-05-20T16:29:04.976Z,43.61
2023-05-20T16:31:34.466Z,42.99
2023-05-20T16:34:03.845Z,43.36
2023-05-20T16:36:31.733Z,44.13
2023-05-20T16:38:59.527Z,44.57
2023-05-20T16:41:27.709Z,44.54
2023-05-20T16:43:55.594Z,45.19
2023-05-20T16:46:23.506Z,44.94
2023-05-20T16:48:52.724Z,44.47
2023-05-20T16:51:20.700Z,44.53
2023-05-20T16:53:48.488Z,44.71
2023-05-20T16:56:16.463Z,45.12
2023-05-20T16:58:44.249Z,45.18
2023-05-20T17:01:12.217Z,45.79
2023-05-20T17:03:40.045Z,46.50
2023-05-20T17:06:09.456Z,46.77
2023-05-20T17:08:38.104Z,46.87
2023-05-20T17:11:05.987Z,46.95
2023-05-20T17:13:33.740Z,47.24
2023-05-20T17:16:01.817Z,47.60
2023-05-20T17:18:29.642Z,47.84
2023-05-20T17:20:57.496Z,48.07
2023-05-20T17:23:26.627Z,47.80
2023-05-20T17:25:54.424Z,47.92
2023-05-20T17:28:22.189Z,48.47
2023-05-20T17:30:50.076Z,48.77
2023-05-20T17:33:19.039Z,48.71
2023-05-20T17:35:46.915Z,49.31
2023-05-20T17:38:14.699Z,49.58
2023-05-20T17:40:43.920Z,49.84
2023-05-20T17:43:11.753Z,49.82
2023-05-20T17:45:39.538Z,50.14
2023-05-20T17:48:09.433Z,50.43
2023-05-20T17:50:39.339Z,50.38
2023-05-20T17:53:07.220Z,51.37
2023-05-20T17:55:36.626Z,52.14
2023-05-20T17:58:07.188Z,53.15
2023-05-20T18:00:41.951Z,53.01
2023-05-20T18:03:10.370Z,53.67
2023-05-20T18:05:38.333Z,53.62
2023-05-20T18:08:06.524Z,54.48
2023-05-20T18:10:34.576Z,54.47
2023-05-20T18:13:02.653Z,53.95
2023-05-20T18:15:31.766Z,54.67
2023-05-20T18:17:59.656Z,54.50
2023-05-20T18:20:27.476Z,54.79
2023-05-20T18:22:58.496Z,55.05
2023-05-20T18:25:26.862Z,54.90
2023-05-20T18:27:54.712Z,56.36
2023-05-20T18:30:23.295Z,56.51
2023-05-20T18:32:53.311Z,55.62
2023-05-20T18:35:21.189Z,56.41
2023-05-20T18:37:49.034Z,57.16
2023-05-20T18:40:16.834Z,57.32
2023-05-20T18:42:44.621Z,58.39
2023-05-20T18:45:13.032Z,58.42
2023-05-20T18:47:40.851Z,57.83
2023-05-20T18:50:11.253Z,58.38
2023-05-20T18:52:39.053Z,58.80
2023-05-20T18:55:07.879Z,59.23
2023-05-20T18:57:35.735Z,59.50
2023-05-20T19:00:07.674Z,59.55
2023-05-20T19:02:35.501Z,60.22
2023-05-20T19:05:03.364Z,60.12
2023-05-20T19:07:33.148Z,60.13
2023-05-20T19:10:01.286Z,60.42
2023-05-20T19:12:29.248Z,60.64
2023-05-20T19:14:57.168Z,60.99
2023-05-20T19:17:25.135Z,61.89
2023-05-20T19:19:52.960Z,61.72
2023-05-20T19:22:20.776Z,62.27
2023-05-20T19:24:49.942Z,63.37
2023-05-20T19:27:17.826Z,62.92
2023-05-20T19:29:45.627Z,63.68
2023-05-20T19:32:13.459Z,63.54
2023-05-20T19:34:41.682Z,64.07
2023-05-20T19:37:09.492Z,64.39
2023-05-20T19:39:37.487Z,64.72
2023-05-20T19:42:07.009Z,64.67
2023-05-20T19:44:34.784Z,65.49
2023-05-20T19:47:02.639Z,65.31
2023-05-20T19:49:30.565Z,65.64
2023-05-20T19:51:58.360Z,66.15
2023-05-20T19:54:27.618Z,66.31
2023-05-20T19:56:55.479Z,66.11
2023-05-20T19:59:24.645Z,66.49
2023-05-20T20:01:52.502Z,66.70
2023-05-20T20:04:20.498Z,66.93
2023-05-20T20:06:48.991Z,66.70
2023-05-20T20:09:17.327Z,67.04
2023-05-20T20:11:45.156Z,67.77
2023-05-20T20:14:13.811Z,67.40
2023-05-20T20:16:48.751Z,67.38
2023-05-20T20:19:22.690Z,68.05
2023-05-20T20:21:53.020Z,67.71
2023-05-20T20:24:21.246Z,68.18
2023-05-20T20:26:49.063Z,68.21
2023-05-20T20:29:16.871Z,68.45
2023-05-20T20:31:46.057Z,69.07
2023-05-20T20:34:13.919Z,69.04
2023-05-20T20:36:44.865Z,69.00
2023-05-20T20:39:18.949Z,68.96
2023-05-20T20:41:47.364Z,70.11
2023-05-20T20:44:18.620Z,70.42
2023-05-20T20:46:50.779Z,70.16
2023-05-20T20:49:18.942Z,69.70
2023-05-20T20:51:47.224Z,69.97
2023-05-20T20:54:15.336Z,70.41
2023-05-20T20:56:45.548Z,69.80
2023-05-20T20:59:15.673Z,70.68
2023-05-20T21:01:44.838Z,69.96
2023-05-20T21:04:14.549Z,70.22
2023-05-20T21:06:46.022Z,70.62
2023-05-20T21:09:14.266Z,70.95
2023-05-20T21:11:42.928Z,70.94
2023-05-20T21:14:10.983Z,71.40
2023-05-20T21:16:39.116Z,70.76
2023-05-20T21:19:07.035Z,70.87
2023-05-20T21:21:36.265Z,71.27
2023-05-20T21:24:04.108Z,71.72
2023-05-20T21:26:31.878Z,71.86
2023-05-20T21:28:59.682Z,72.01
2023-05-20T21:31:27.473Z,72.30
2023-05-20T21:33:55.321Z,72.32
2023-05-20T21:36:23.181Z,72.06
2023-05-20T21:38:52.342Z,72.09
2023-05-20T21:41:20.118Z,71.76
2023-05-20T21:43:47.944Z,72.33
2023-05-20T21:46:16.068Z,72.42
2023-05-20T21:48:44.301Z,72.61
2023-05-20T21:51:12.137Z,71.70
2023-05-20T21:53:40.165Z,72.63
2023-05-20T21:56:09.549Z,72.24
2023-05-20T21:58:40.894Z,72.14
2023-05-20T22:01:09.840Z,72.60
2023-05-20T22:03:38.507Z,72.41
2023-05-20T22:06:07.012Z,71.80
2023-05-20T22:08:35.242Z,72.24
2023-05-20T22:11:07.542Z,71.96
2023-05-20T22:13:41.502Z,73.06
2023-05-20T22:16:10.267Z,72.59
2023-05-20T22:18:38.517Z,73.13
2023-05-20T22:21:07.102Z,72.55
2023-05-20T22:23:35.118Z,73.29
2023-05-20T22:26:02.981Z,72.37
2023-05-20T22:28:30.855Z,73.00
2023-05-20T22:31:00.791Z,72.15
2023-05-20T22:33:28.856Z,72.99
2023-05-20T22:35:58.252Z,72.61
2023-05-20T22:38:26.176Z,72.96
2023-05-20T22:40:54.004Z,73.32
2023-05-20T22:43:23.515Z,73.30
2023-05-20T22:45:51.769Z,72.79
2023-05-20T22:48:23.119Z,72.83
2023-05-20T22:50:51.220Z,72.64
2023-05-20T22:53:19.011Z,73.18
2023-05-20T22:55:46.942Z,73.14
2023-05-20T22:58:14.881Z,72.43
2023-05-20T23:00:44.571Z,73.48
2023-05-20T23:03:13.359Z,72.99
2023-05-20T23:05:43.073Z,73.05
2023-05-20T23:08:10.923Z,73.20
2023-05-20T23:10:39.184Z,73.01
2023-05-20T23:13:07.262Z,72.93
2023-05-20T23:15:35.354Z,72.88
2023-05-20T23:18:03.782Z,72.93
2023-05-20T23:20:31.841Z,72.34
2023-05-20T23:23:08.237Z,73.02
2023-05-20T23:25:39.596Z,72.08
2023-05-20T23:28:07.922Z,72.37
2023-05-20T23:30:35.959Z,72.78
2023-05-20T23:33:04.759Z,72.79
2023-05-20T23:35:32.873Z,72.16
2023-05-20T23:38:02.476Z,72.78
2023-05-20T23:40:30.561Z,72.31
2023-05-20T23:42:58.734Z,71.98
2023-05-20T23:45:26.759Z,71.73
2023-05-20T23:47:55.677Z,72.32
2023-05-20T23:50:23.723Z,72.14
2023-05-20T23:52:52.459Z,72.57
2023-05-20T23:55:21.897Z,72.71
2023-05-20T23:57:50.663Z,73.12
